DMD weather

Doomadgee Airport
Queensland, Australia

Public forecast

Using degrees Celsius for public forecast. Weather courtesy of forecast.io.

METAR (pilot weather report)

Closest report is Normanton Airport, 129.4 nm (239.6 km) E. Retrieved 2019/04/21 05:00 UTC (44 minutes ago):

YNTN 210500Z AUTO 10006KT 080V190 9999 // NCD 34/13 Q1009

TAF (pilot weather forecast)

Closest forecast is Tennant Creek Airport, 282.6 nm (523.4 km) WSW. Retrieved 2019/04/21 02:33 UTC (3 hours ago):

TAF TAF YTNK 210105Z 2102/2114 10013KT CAVOK FM210400 12010KT CAVOK